sensor_id;sensor_type;location;lat;lon;timestamp;P1;durP1;ratioP1;P2;durP2;ratioP2
11572;SDS011;5842;52.426;4.886;2022-11-10T00:00:14;22.47;;;4.97;;
11572;SDS011;5842;52.426;4.886;2022-11-10T00:02:42;18.23;;;5.80;;
11572;SDS011;5842;52.426;4.886;2022-11-10T00:05:09;14.07;;;7.30;;
11572;SDS011;5842;52.426;4.886;2022-11-10T00:07:37;20.33;;;7.87;;
11572;SDS011;5842;52.426;4.886;2022-11-10T00:10:07;20.57;;;7.67;;
11572;SDS011;5842;52.426;4.886;2022-11-10T00:12:34;14.87;;;6.50;;
11572;SDS011;5842;52.426;4.886;2022-11-10T00:15:02;21.77;;;5.50;;
11572;SDS011;5842;52.426;4.886;2022-11-10T00:17:47;15.87;;;5.23;;
11572;SDS011;5842;52.426;4.886;2022-11-10T00:20:14;18.07;;;4.37;;
11572;SDS011;5842;52.426;4.886;2022-11-10T00:22:42;12.33;;;3.83;;
11572;SDS011;5842;52.426;4.886;2022-11-10T00:25:10;13.43;;;3.50;;
11572;SDS011;5842;52.426;4.886;2022-11-10T00:27:38;11.60;;;3.63;;
11572;SDS011;5842;52.426;4.886;2022-11-10T00:30:05;14.40;;;4.00;;
11572;SDS011;5842;52.426;4.886;2022-11-10T00:32:33;17.07;;;4.13;;
11572;SDS011;5842;52.426;4.886;2022-11-10T00:35:02;17.63;;;4.40;;
11572;SDS011;5842;52.426;4.886;2022-11-10T00:37:31;15.30;;;3.60;;
11572;SDS011;5842;52.426;4.886;2022-11-10T00:39:59;13.40;;;3.40;;
11572;SDS011;5842;52.426;4.886;2022-11-10T00:42:27;16.73;;;3.50;;
11572;SDS011;5842;52.426;4.886;2022-11-10T00:44:54;18.10;;;3.43;;
11572;SDS011;5842;52.426;4.886;2022-11-10T00:47:22;14.37;;;3.47;;
11572;SDS011;5842;52.426;4.886;2022-11-10T00:49:49;13.20;;;3.20;;
11572;SDS011;5842;52.426;4.886;2022-11-10T00:52:16;9.47;;;2.63;;
11572;SDS011;5842;52.426;4.886;2022-11-10T00:54:43;18.13;;;3.77;;
11572;SDS011;5842;52.426;4.886;2022-11-10T00:57:10;19.20;;;3.70;;
11572;SDS011;5842;52.426;4.886;2022-11-10T00:59:39;12.70;;;3.37;;
11572;SDS011;5842;52.426;4.886;2022-11-10T01:02:06;22.37;;;4.00;;
11572;SDS011;5842;52.426;4.886;2022-11-10T01:04:33;20.90;;;3.73;;
11572;SDS011;5842;52.426;4.886;2022-11-10T01:07:01;17.83;;;3.77;;
11572;SDS011;5842;52.426;4.886;2022-11-10T01:09:28;16.97;;;5.50;;
11572;SDS011;5842;52.426;4.886;2022-11-10T01:11:55;16.10;;;4.63;;
11572;SDS011;5842;52.426;4.886;2022-11-10T01:14:22;27.60;;;10.57;;
11572;SDS011;5842;52.426;4.886;2022-11-10T01:16:51;25.23;;;12.40;;
11572;SDS011;5842;52.426;4.886;2022-11-10T01:19:18;32.93;;;18.20;;
11572;SDS011;5842;52.426;4.886;2022-11-10T01:21:45;35.27;;;19.70;;
11572;SDS011;5842;52.426;4.886;2022-11-10T01:24:17;29.50;;;16.40;;
11572;SDS011;5842;52.426;4.886;2022-11-10T01:26:45;34.43;;;17.67;;
11572;SDS011;5842;52.426;4.886;2022-11-10T01:29:13;31.37;;;18.60;;
11572;SDS011;5842;52.426;4.886;2022-11-10T01:31:40;30.73;;;16.17;;
11572;SDS011;5842;52.426;4.886;2022-11-10T01:34:09;32.87;;;13.47;;
11572;SDS011;5842;52.426;4.886;2022-11-10T01:36:36;19.73;;;10.60;;
11572;SDS011;5842;52.426;4.886;2022-11-10T01:39:04;23.10;;;8.97;;
11572;SDS011;5842;52.426;4.886;2022-11-10T01:41:31;17.10;;;6.53;;
11572;SDS011;5842;52.426;4.886;2022-11-10T01:44:11;18.97;;;5.63;;
11572;SDS011;5842;52.426;4.886;2022-11-10T01:46:39;20.70;;;5.30;;
11572;SDS011;5842;52.426;4.886;2022-11-10T01:49:06;21.43;;;5.33;;
11572;SDS011;5842;52.426;4.886;2022-11-10T01:51:37;21.20;;;6.77;;
11572;SDS011;5842;52.426;4.886;2022-11-10T01:54:08;22.73;;;6.83;;
11572;SDS011;5842;52.426;4.886;2022-11-10T01:56:38;27.17;;;13.83;;
11572;SDS011;5842;52.426;4.886;2022-11-10T01:59:09;33.93;;;15.33;;
11572;SDS011;5842;52.426;4.886;2022-11-10T02:01:39;26.37;;;14.10;;
11572;SDS011;5842;52.426;4.886;2022-11-10T02:04:06;27.83;;;13.57;;
11572;SDS011;5842;52.426;4.886;2022-11-10T02:06:41;30.90;;;15.33;;
11572;SDS011;5842;52.426;4.886;2022-11-10T02:09:09;25.73;;;13.00;;
11572;SDS011;5842;52.426;4.886;2022-11-10T02:11:37;27.63;;;11.00;;
11572;SDS011;5842;52.426;4.886;2022-11-10T02:14:05;25.93;;;9.30;;
11572;SDS011;5842;52.426;4.886;2022-11-10T02:16:32;19.87;;;4.63;;
11572;SDS011;5842;52.426;4.886;2022-11-10T02:19:10;19.67;;;4.13;;
11572;SDS011;5842;52.426;4.886;2022-11-10T02:21:43;17.70;;;4.10;;
11572;SDS011;5842;52.426;4.886;2022-11-10T02:24:10;15.43;;;3.67;;
11572;SDS011;5842;52.426;4.886;2022-11-10T02:26:38;17.37;;;3.63;;
11572;SDS011;5842;52.426;4.886;2022-11-10T02:29:09;16.03;;;4.00;;
11572;SDS011;5842;52.426;4.886;2022-11-10T02:31:36;19.50;;;4.47;;
11572;SDS011;5842;52.426;4.886;2022-11-10T02:34:03;16.47;;;3.83;;
11572;SDS011;5842;52.426;4.886;2022-11-10T02:36:30;15.00;;;3.73;;
11572;SDS011;5842;52.426;4.886;2022-11-10T02:38:59;22.87;;;4.43;;
11572;SDS011;5842;52.426;4.886;2022-11-10T02:41:26;17.67;;;4.37;;
11572;SDS011;5842;52.426;4.886;2022-11-10T02:43:53;20.03;;;4.13;;
11572;SDS011;5842;52.426;4.886;2022-11-10T02:46:22;15.30;;;3.73;;
11572;SDS011;5842;52.426;4.886;2022-11-10T02:48:50;20.83;;;4.03;;
11572;SDS011;5842;52.426;4.886;2022-11-10T02:51:17;16.27;;;4.30;;
11572;SDS011;5842;52.426;4.886;2022-11-10T02:53:44;19.17;;;3.93;;
11572;SDS011;5842;52.426;4.886;2022-11-10T02:56:12;19.37;;;3.97;;
11572;SDS011;5842;52.426;4.886;2022-11-10T02:58:39;19.30;;;3.90;;
11572;SDS011;5842;52.426;4.886;2022-11-10T03:01:06;13.37;;;3.20;;
11572;SDS011;5842;52.426;4.886;2022-11-10T03:03:33;16.60;;;3.63;;
11572;SDS011;5842;52.426;4.886;2022-11-10T03:06:01;18.17;;;3.47;;
11572;SDS011;5842;52.426;4.886;2022-11-10T03:08:28;13.50;;;3.90;;
11572;SDS011;5842;52.426;4.886;2022-11-10T03:10:55;14.50;;;3.77;;
11572;SDS011;5842;52.426;4.886;2022-11-10T03:13:24;15.23;;;3.80;;
11572;SDS011;5842;52.426;4.886;2022-11-10T03:15:51;18.17;;;3.97;;
11572;SDS011;5842;52.426;4.886;2022-11-10T03:18:18;27.57;;;4.57;;
11572;SDS011;5842;52.426;4.886;2022-11-10T03:20:46;23.23;;;4.37;;
11572;SDS011;5842;52.426;4.886;2022-11-10T03:23:14;20.23;;;4.23;;
11572;SDS011;5842;52.426;4.886;2022-11-10T03:25:42;20.20;;;4.03;;
11572;SDS011;5842;52.426;4.886;2022-11-10T03:28:10;18.63;;;3.90;;
11572;SDS011;5842;52.426;4.886;2022-11-10T03:30:39;22.20;;;3.93;;
11572;SDS011;5842;52.426;4.886;2022-11-10T03:33:07;17.73;;;4.20;;
11572;SDS011;5842;52.426;4.886;2022-11-10T03:35:37;22.40;;;3.90;;
11572;SDS011;5842;52.426;4.886;2022-11-10T03:38:04;20.70;;;3.53;;
11572;SDS011;5842;52.426;4.886;2022-11-10T03:40:31;22.17;;;4.33;;
11572;SDS011;5842;52.426;4.886;2022-11-10T03:42:58;18.03;;;3.90;;
11572;SDS011;5842;52.426;4.886;2022-11-10T03:45:25;19.47;;;3.90;;
11572;SDS011;5842;52.426;4.886;2022-11-10T03:47:53;17.87;;;3.90;;
11572;SDS011;5842;52.426;4.886;2022-11-10T03:50:20;21.50;;;4.63;;
11572;SDS011;5842;52.426;4.886;2022-11-10T03:52:47;27.40;;;4.03;;
11572;SDS011;5842;52.426;4.886;2022-11-10T03:55:16;21.37;;;3.90;;
11572;SDS011;5842;52.426;4.886;2022-11-10T03:57:44;15.93;;;3.57;;
11572;SDS011;5842;52.426;4.886;2022-11-10T04:00:12;22.70;;;4.20;;
11572;SDS011;5842;52.426;4.886;2022-11-10T04:02:40;22.30;;;3.70;;
11572;SDS011;5842;52.426;4.886;2022-11-10T04:05:09;24.33;;;3.90;;
11572;SDS011;5842;52.426;4.886;2022-11-10T04:07:56;18.40;;;4.23;;
11572;SDS011;5842;52.426;4.886;2022-11-10T04:10:41;25.53;;;4.27;;
11572;SDS011;5842;52.426;4.886;2022-11-10T04:13:09;22.87;;;3.70;;
11572;SDS011;5842;52.426;4.886;2022-11-10T04:15:53;20.13;;;3.77;;
11572;SDS011;5842;52.426;4.886;2022-11-10T04:18:21;20.77;;;4.07;;
11572;SDS011;5842;52.426;4.886;2022-11-10T04:20:55;28.77;;;6.27;;
11572;SDS011;5842;52.426;4.886;2022-11-10T04:23:24;19.40;;;4.57;;
11572;SDS011;5842;52.426;4.886;2022-11-10T04:25:53;20.60;;;4.67;;
11572;SDS011;5842;52.426;4.886;2022-11-10T04:28:38;20.50;;;4.47;;
11572;SDS011;5842;52.426;4.886;2022-11-10T04:31:06;16.17;;;4.13;;
11572;SDS011;5842;52.426;4.886;2022-11-10T04:33:34;18.73;;;3.97;;
11572;SDS011;5842;52.426;4.886;2022-11-10T04:36:04;21.27;;;4.20;;
11572;SDS011;5842;52.426;4.886;2022-11-10T04:38:31;17.13;;;3.80;;
11572;SDS011;5842;52.426;4.886;2022-11-10T04:40:58;24.67;;;4.13;;
11572;SDS011;5842;52.426;4.886;2022-11-10T04:43:26;26.33;;;4.27;;
11572;SDS011;5842;52.426;4.886;2022-11-10T04:45:53;21.67;;;3.70;;
11572;SDS011;5842;52.426;4.886;2022-11-10T04:48:24;18.40;;;3.53;;
11572;SDS011;5842;52.426;4.886;2022-11-10T04:50:52;18.73;;;4.00;;
11572;SDS011;5842;52.426;4.886;2022-11-10T04:53:21;13.57;;;3.40;;
11572;SDS011;5842;52.426;4.886;2022-11-10T04:55:49;20.33;;;4.53;;
11572;SDS011;5842;52.426;4.886;2022-11-10T04:58:17;24.07;;;4.40;;
11572;SDS011;5842;52.426;4.886;2022-11-10T05:00:44;23.97;;;5.30;;
11572;SDS011;5842;52.426;4.886;2022-11-10T05:03:12;19.53;;;5.33;;
11572;SDS011;5842;52.426;4.886;2022-11-10T05:05:40;25.00;;;6.87;;
11572;SDS011;5842;52.426;4.886;2022-11-10T05:08:07;27.20;;;9.27;;
11572;SDS011;5842;52.426;4.886;2022-11-10T05:10:37;15.17;;;6.33;;
11572;SDS011;5842;52.426;4.886;2022-11-10T05:13:05;22.67;;;9.20;;
11572;SDS011;5842;52.426;4.886;2022-11-10T05:15:32;27.07;;;7.53;;
11572;SDS011;5842;52.426;4.886;2022-11-10T05:17:59;23.37;;;6.10;;
11572;SDS011;5842;52.426;4.886;2022-11-10T05:20:27;22.90;;;5.37;;
11572;SDS011;5842;52.426;4.886;2022-11-10T05:22:54;29.70;;;6.00;;
11572;SDS011;5842;52.426;4.886;2022-11-10T05:25:40;23.33;;;6.13;;
11572;SDS011;5842;52.426;4.886;2022-11-10T05:28:09;24.67;;;6.27;;
11572;SDS011;5842;52.426;4.886;2022-11-10T05:30:40;22.30;;;5.87;;
11572;SDS011;5842;52.426;4.886;2022-11-10T05:33:07;24.60;;;5.60;;
11572;SDS011;5842;52.426;4.886;2022-11-10T05:35:35;17.20;;;5.30;;
11572;SDS011;5842;52.426;4.886;2022-11-10T05:38:02;19.47;;;5.87;;
11572;SDS011;5842;52.426;4.886;2022-11-10T05:40:30;20.27;;;5.93;;
11572;SDS011;5842;52.426;4.886;2022-11-10T05:42:59;24.60;;;6.47;;
11572;SDS011;5842;52.426;4.886;2022-11-10T05:45:27;29.43;;;5.77;;
11572;SDS011;5842;52.426;4.886;2022-11-10T05:47:55;29.33;;;6.20;;
11572;SDS011;5842;52.426;4.886;2022-11-10T05:50:22;19.97;;;5.43;;
11572;SDS011;5842;52.426;4.886;2022-11-10T05:52:52;18.77;;;4.87;;
11572;SDS011;5842;52.426;4.886;2022-11-10T05:55:21;20.40;;;5.90;;
11572;SDS011;5842;52.426;4.886;2022-11-10T05:57:49;25.67;;;5.57;;
11572;SDS011;5842;52.426;4.886;2022-11-10T06:00:19;21.53;;;5.23;;
11572;SDS011;5842;52.426;4.886;2022-11-10T06:02:58;20.47;;;4.07;;
11572;SDS011;5842;52.426;4.886;2022-11-10T06:05:27;27.77;;;6.07;;
11572;SDS011;5842;52.426;4.886;2022-11-10T06:07:55;23.77;;;5.10;;
11572;SDS011;5842;52.426;4.886;2022-11-10T06:10:23;20.73;;;4.77;;
11572;SDS011;5842;52.426;4.886;2022-11-10T06:12:50;21.93;;;4.67;;
11572;SDS011;5842;52.426;4.886;2022-11-10T06:15:19;27.13;;;5.53;;
11572;SDS011;5842;52.426;4.886;2022-11-10T06:17:46;20.73;;;5.10;;
11572;SDS011;5842;52.426;4.886;2022-11-10T06:20:14;26.07;;;5.90;;
11572;SDS011;5842;52.426;4.886;2022-11-10T06:22:42;28.37;;;5.50;;
11572;SDS011;5842;52.426;4.886;2022-11-10T06:25:09;17.53;;;4.53;;
11572;SDS011;5842;52.426;4.886;2022-11-10T06:27:37;21.07;;;5.23;;
11572;SDS011;5842;52.426;4.886;2022-11-10T06:30:08;28.37;;;5.67;;
11572;SDS011;5842;52.426;4.886;2022-11-10T06:32:39;24.30;;;5.30;;
11572;SDS011;5842;52.426;4.886;2022-11-10T06:35:08;16.50;;;4.53;;
11572;SDS011;5842;52.426;4.886;2022-11-10T06:37:35;18.00;;;4.30;;
11572;SDS011;5842;52.426;4.886;2022-11-10T06:40:04;25.20;;;5.03;;
11572;SDS011;5842;52.426;4.886;2022-11-10T06:42:33;19.97;;;4.30;;
11572;SDS011;5842;52.426;4.886;2022-11-10T06:45:01;17.23;;;4.10;;
11572;SDS011;5842;52.426;4.886;2022-11-10T06:47:29;24.50;;;4.60;;
11572;SDS011;5842;52.426;4.886;2022-11-10T06:49:57;28.13;;;5.37;;
11572;SDS011;5842;52.426;4.886;2022-11-10T06:52:24;21.17;;;5.00;;
11572;SDS011;5842;52.426;4.886;2022-11-10T06:54:51;20.20;;;5.07;;
11572;SDS011;5842;52.426;4.886;2022-11-10T06:57:18;27.53;;;5.40;;
11572;SDS011;5842;52.426;4.886;2022-11-10T06:59:45;19.90;;;5.23;;
11572;SDS011;5842;52.426;4.886;2022-11-10T07:02:13;22.27;;;5.17;;
11572;SDS011;5842;52.426;4.886;2022-11-10T07:04:40;16.70;;;4.87;;
11572;SDS011;5842;52.426;4.886;2022-11-10T07:07:09;23.87;;;5.27;;
11572;SDS011;5842;52.426;4.886;2022-11-10T07:09:36;22.47;;;6.07;;
11572;SDS011;5842;52.426;4.886;2022-11-10T07:12:04;21.87;;;5.53;;
11572;SDS011;5842;52.426;4.886;2022-11-10T07:14:31;21.33;;;6.00;;
11572;SDS011;5842;52.426;4.886;2022-11-10T07:16:58;24.23;;;6.57;;
11572;SDS011;5842;52.426;4.886;2022-11-10T07:19:26;28.27;;;7.00;;
11572;SDS011;5842;52.426;4.886;2022-11-10T07:38:34;18.73;;;7.17;;
11572;SDS011;5842;52.426;4.886;2022-11-10T07:41:01;19.50;;;6.63;;
11572;SDS011;5842;52.426;4.886;2022-11-10T07:43:28;21.23;;;6.30;;
11572;SDS011;5842;52.426;4.886;2022-11-10T07:45:56;20.70;;;6.70;;
11572;SDS011;5842;52.426;4.886;2022-11-10T07:48:23;21.30;;;6.77;;
11572;SDS011;5842;52.426;4.886;2022-11-10T07:50:51;16.17;;;6.20;;
11572;SDS011;5842;52.426;4.886;2022-11-10T07:53:18;26.30;;;6.93;;
11572;SDS011;5842;52.426;4.886;2022-11-10T07:55:48;26.67;;;6.03;;
11572;SDS011;5842;52.426;4.886;2022-11-10T07:58:16;20.70;;;6.43;;
11572;SDS011;5842;52.426;4.886;2022-11-10T08:00:44;22.17;;;5.23;;
11572;SDS011;5842;52.426;4.886;2022-11-10T08:03:13;22.07;;;6.00;;
11572;SDS011;5842;52.426;4.886;2022-11-10T08:05:41;19.40;;;5.60;;
11572;SDS011;5842;52.426;4.886;2022-11-10T08:08:08;17.80;;;5.27;;
11572;SDS011;5842;52.426;4.886;2022-11-10T08:10:36;18.83;;;5.20;;
11572;SDS011;5842;52.426;4.886;2022-11-10T08:13:07;17.13;;;4.70;;
11572;SDS011;5842;52.426;4.886;2022-11-10T08:15:36;21.43;;;5.50;;
11572;SDS011;5842;52.426;4.886;2022-11-10T08:18:10;16.47;;;4.93;;
11572;SDS011;5842;52.426;4.886;2022-11-10T08:20:40;16.53;;;4.83;;
11572;SDS011;5842;52.426;4.886;2022-11-10T08:23:08;15.27;;;4.73;;
11572;SDS011;5842;52.426;4.886;2022-11-10T08:25:35;19.13;;;5.30;;
11572;SDS011;5842;52.426;4.886;2022-11-10T08:28:05;14.40;;;4.93;;
11572;SDS011;5842;52.426;4.886;2022-11-10T08:30:35;17.20;;;5.03;;
11572;SDS011;5842;52.426;4.886;2022-11-10T08:33:04;13.27;;;4.40;;
11572;SDS011;5842;52.426;4.886;2022-11-10T08:35:34;18.53;;;5.47;;
11572;SDS011;5842;52.426;4.886;2022-11-10T08:38:06;16.83;;;5.67;;
11572;SDS011;5842;52.426;4.886;2022-11-10T08:40:35;21.37;;;7.00;;
11572;SDS011;5842;52.426;4.886;2022-11-10T08:43:02;19.40;;;6.23;;
11572;SDS011;5842;52.426;4.886;2022-11-10T08:45:32;17.20;;;5.83;;
11572;SDS011;5842;52.426;4.886;2022-11-10T08:48:00;20.47;;;6.03;;
11572;SDS011;5842;52.426;4.886;2022-11-10T08:50:29;16.40;;;5.60;;
11572;SDS011;5842;52.426;4.886;2022-11-10T08:52:59;20.27;;;5.70;;
11572;SDS011;5842;52.426;4.886;2022-11-10T08:55:27;21.03;;;5.50;;
11572;SDS011;5842;52.426;4.886;2022-11-10T08:57:57;21.60;;;6.00;;
11572;SDS011;5842;52.426;4.886;2022-11-10T09:00:26;15.67;;;4.80;;
11572;SDS011;5842;52.426;4.886;2022-11-10T09:02:54;16.23;;;4.10;;
11572;SDS011;5842;52.426;4.886;2022-11-10T09:05:22;15.23;;;4.57;;
11572;SDS011;5842;52.426;4.886;2022-11-10T09:07:49;16.40;;;4.60;;
11572;SDS011;5842;52.426;4.886;2022-11-10T09:10:16;17.97;;;4.73;;
11572;SDS011;5842;52.426;4.886;2022-11-10T09:12:44;17.10;;;4.73;;
11572;SDS011;5842;52.426;4.886;2022-11-10T09:15:11;13.77;;;4.23;;
11572;SDS011;5842;52.426;4.886;2022-11-10T09:17:40;17.07;;;4.30;;
11572;SDS011;5842;52.426;4.886;2022-11-10T09:20:08;13.57;;;3.90;;
11572;SDS011;5842;52.426;4.886;2022-11-10T09:22:36;23.97;;;5.30;;
11572;SDS011;5842;52.426;4.886;2022-11-10T09:25:04;15.17;;;4.50;;
11572;SDS011;5842;52.426;4.886;2022-11-10T09:27:33;14.03;;;4.00;;
11572;SDS011;5842;52.426;4.886;2022-11-10T09:30:02;14.70;;;4.20;;
11572;SDS011;5842;52.426;4.886;2022-11-10T09:32:30;12.37;;;3.73;;
11572;SDS011;5842;52.426;4.886;2022-11-10T09:35:00;14.60;;;3.97;;
11572;SDS011;5842;52.426;4.886;2022-11-10T09:37:27;16.87;;;4.40;;
11572;SDS011;5842;52.426;4.886;2022-11-10T09:39:54;17.83;;;4.50;;
11572;SDS011;5842;52.426;4.886;2022-11-10T09:42:24;14.60;;;3.90;;
11572;SDS011;5842;52.426;4.886;2022-11-10T09:44:57;17.77;;;4.67;;
11572;SDS011;5842;52.426;4.886;2022-11-10T09:47:30;12.63;;;4.70;;
11572;SDS011;5842;52.426;4.886;2022-11-10T09:50:07;16.23;;;4.37;;
11572;SDS011;5842;52.426;4.886;2022-11-10T09:52:43;15.47;;;4.00;;
11572;SDS011;5842;52.426;4.886;2022-11-10T09:55:17;12.10;;;3.97;;
11572;SDS011;5842;52.426;4.886;2022-11-10T09:57:50;12.40;;;3.60;;
11572;SDS011;5842;52.426;4.886;2022-11-10T10:00:21;15.23;;;4.60;;
11572;SDS011;5842;52.426;4.886;2022-11-10T10:02:49;13.20;;;3.77;;
11572;SDS011;5842;52.426;4.886;2022-11-10T10:05:28;15.77;;;4.23;;
11572;SDS011;5842;52.426;4.886;2022-11-10T10:08:14;12.93;;;4.70;;
11572;SDS011;5842;52.426;4.886;2022-11-10T10:10:48;21.10;;;4.77;;
11572;SDS011;5842;52.426;4.886;2022-11-10T10:13:26;14.97;;;4.13;;
11572;SDS011;5842;52.426;4.886;2022-11-10T10:16:06;17.03;;;4.43;;
11572;SDS011;5842;52.426;4.886;2022-11-10T10:18:40;15.70;;;4.17;;
11572;SDS011;5842;52.426;4.886;2022-11-10T10:21:20;15.23;;;4.03;;
11572;SDS011;5842;52.426;4.886;2022-11-10T10:23:59;17.47;;;4.40;;
11572;SDS011;5842;52.426;4.886;2022-11-10T10:26:27;11.97;;;3.63;;
11572;SDS011;5842;52.426;4.886;2022-11-10T10:28:57;15.63;;;4.13;;
11572;SDS011;5842;52.426;4.886;2022-11-10T10:31:31;20.43;;;7.67;;
11572;SDS011;5842;52.426;4.886;2022-11-10T10:34:00;12.23;;;4.10;;
11572;SDS011;5842;52.426;4.886;2022-11-10T10:36:30;14.47;;;3.90;;
11572;SDS011;5842;52.426;4.886;2022-11-10T10:39:00;13.67;;;3.90;;
11572;SDS011;5842;52.426;4.886;2022-11-10T10:41:30;14.37;;;4.20;;
11572;SDS011;5842;52.426;4.886;2022-11-10T10:44:00;17.13;;;3.60;;
11572;SDS011;5842;52.426;4.886;2022-11-10T10:46:28;12.60;;;3.37;;
11572;SDS011;5842;52.426;4.886;2022-11-10T10:49:06;14.67;;;4.37;;
11572;SDS011;5842;52.426;4.886;2022-11-10T10:51:39;15.97;;;4.43;;
11572;SDS011;5842;52.426;4.886;2022-11-10T10:54:20;13.33;;;4.07;;
11572;SDS011;5842;52.426;4.886;2022-11-10T10:56:48;13.20;;;3.87;;
11572;SDS011;5842;52.426;4.886;2022-11-10T10:59:17;15.63;;;4.00;;
11572;SDS011;5842;52.426;4.886;2022-11-10T11:01:51;15.73;;;3.87;;
11572;SDS011;5842;52.426;4.886;2022-11-10T11:04:26;17.63;;;4.17;;
11572;SDS011;5842;52.426;4.886;2022-11-10T11:06:58;12.70;;;3.53;;
11572;SDS011;5842;52.426;4.886;2022-11-10T11:09:28;17.20;;;4.13;;
11572;SDS011;5842;52.426;4.886;2022-11-10T11:12:00;12.93;;;3.73;;
11572;SDS011;5842;52.426;4.886;2022-11-10T11:14:29;12.17;;;3.17;;
11572;SDS011;5842;52.426;4.886;2022-11-10T11:16:59;12.50;;;3.63;;
11572;SDS011;5842;52.426;4.886;2022-11-10T11:19:29;14.00;;;3.53;;
11572;SDS011;5842;52.426;4.886;2022-11-10T11:22:05;11.27;;;3.60;;
11572;SDS011;5842;52.426;4.886;2022-11-10T11:24:46;15.37;;;3.93;;
11572;SDS011;5842;52.426;4.886;2022-11-10T11:27:21;17.43;;;3.57;;
11572;SDS011;5842;52.426;4.886;2022-11-10T11:29:59;13.23;;;3.30;;
11572;SDS011;5842;52.426;4.886;2022-11-10T11:35:18;11.97;;;3.63;;
11572;SDS011;5842;52.426;4.886;2022-11-10T11:37:58;16.13;;;3.90;;
11572;SDS011;5842;52.426;4.886;2022-11-10T11:40:39;13.77;;;3.70;;
11572;SDS011;5842;52.426;4.886;2022-11-10T11:43:16;13.53;;;3.70;;
11572;SDS011;5842;52.426;4.886;2022-11-10T11:46:05;18.70;;;4.10;;
11572;SDS011;5842;52.426;4.886;2022-11-10T11:48:42;11.53;;;3.30;;
11572;SDS011;5842;52.426;4.886;2022-11-10T11:51:17;17.23;;;3.93;;
11572;SDS011;5842;52.426;4.886;2022-11-10T11:57:08;12.93;;;3.80;;
11572;SDS011;5842;52.426;4.886;2022-11-10T11:59:58;17.30;;;4.23;;
11572;SDS011;5842;52.426;4.886;2022-11-10T12:02:33;16.03;;;4.00;;
11572;SDS011;5842;52.426;4.886;2022-11-10T12:05:10;16.13;;;3.73;;
11572;SDS011;5842;52.426;4.886;2022-11-10T12:07:51;13.87;;;3.40;;
11572;SDS011;5842;52.426;4.886;2022-11-10T12:10:26;16.27;;;3.30;;
11572;SDS011;5842;52.426;4.886;2022-11-10T12:13:10;12.00;;;3.30;;
11572;SDS011;5842;52.426;4.886;2022-11-10T12:15:51;13.87;;;3.47;;
11572;SDS011;5842;52.426;4.886;2022-11-10T12:18:27;14.03;;;3.40;;
11572;SDS011;5842;52.426;4.886;2022-11-10T12:21:02;17.37;;;3.87;;
11572;SDS011;5842;52.426;4.886;2022-11-10T12:23:46;12.20;;;3.50;;
11572;SDS011;5842;52.426;4.886;2022-11-10T12:26:34;11.63;;;3.40;;
11572;SDS011;5842;52.426;4.886;2022-11-10T12:29:15;11.80;;;3.20;;
11572;SDS011;5842;52.426;4.886;2022-11-10T12:31:47;12.73;;;3.13;;
11572;SDS011;5842;52.426;4.886;2022-11-10T12:34:21;13.03;;;3.27;;
11572;SDS011;5842;52.426;4.886;2022-11-10T12:36:56;15.77;;;3.87;;
11572;SDS011;5842;52.426;4.886;2022-11-10T12:39:27;15.37;;;3.33;;
11572;SDS011;5842;52.426;4.886;2022-11-10T12:42:02;14.63;;;3.17;;
11572;SDS011;5842;52.426;4.886;2022-11-10T12:44:38;14.17;;;3.43;;
11572;SDS011;5842;52.426;4.886;2022-11-10T12:47:10;19.20;;;3.70;;
11572;SDS011;5842;52.426;4.886;2022-11-10T12:49:46;14.47;;;3.57;;
11572;SDS011;5842;52.426;4.886;2022-11-10T12:52:20;10.50;;;3.63;;
11572;SDS011;5842;52.426;4.886;2022-11-10T12:54:52;16.00;;;3.53;;
11572;SDS011;5842;52.426;4.886;2022-11-10T12:57:20;16.60;;;3.43;;
11572;SDS011;5842;52.426;4.886;2022-11-10T12:59:53;9.67;;;2.87;;
11572;SDS011;5842;52.426;4.886;2022-11-10T13:02:26;12.57;;;3.27;;
11572;SDS011;5842;52.426;4.886;2022-11-10T13:10:59;12.37;;;3.23;;
11572;SDS011;5842;52.426;4.886;2022-11-10T13:13:28;10.43;;;3.27;;
11572;SDS011;5842;52.426;4.886;2022-11-10T13:16:07;12.60;;;2.93;;
11572;SDS011;5842;52.426;4.886;2022-11-10T13:24:33;15.77;;;3.70;;
11572;SDS011;5842;52.426;4.886;2022-11-10T13:27:02;16.03;;;3.17;;
11572;SDS011;5842;52.426;4.886;2022-11-10T13:29:31;11.53;;;3.37;;
11572;SDS011;5842;52.426;4.886;2022-11-10T13:37:56;12.90;;;2.90;;
11572;SDS011;5842;52.426;4.886;2022-11-10T13:40:25;13.57;;;3.10;;
11572;SDS011;5842;52.426;4.886;2022-11-10T13:46:12;16.27;;;3.20;;
11572;SDS011;5842;52.426;4.886;2022-11-10T13:48:57;15.63;;;3.63;;
11572;SDS011;5842;52.426;4.886;2022-11-10T13:51:37;10.30;;;2.73;;
11572;SDS011;5842;52.426;4.886;2022-11-10T13:54:15;12.17;;;3.40;;
11572;SDS011;5842;52.426;4.886;2022-11-10T13:57:03;12.63;;;3.20;;
11572;SDS011;5842;52.426;4.886;2022-11-10T13:59:43;12.03;;;2.93;;
11572;SDS011;5842;52.426;4.886;2022-11-10T14:08:40;10.93;;;3.37;;
11572;SDS011;5842;52.426;4.886;2022-11-10T14:11:17;10.97;;;2.80;;
11572;SDS011;5842;52.426;4.886;2022-11-10T14:13:49;8.07;;;2.90;;
11572;SDS011;5842;52.426;4.886;2022-11-10T14:16:20;11.23;;;3.47;;
11572;SDS011;5842;52.426;4.886;2022-11-10T14:18:51;11.47;;;3.77;;
11572;SDS011;5842;52.426;4.886;2022-11-10T14:21:29;13.13;;;3.30;;
11572;SDS011;5842;52.426;4.886;2022-11-10T14:24:06;10.07;;;2.97;;
11572;SDS011;5842;52.426;4.886;2022-11-10T14:26:40;13.37;;;3.40;;
11572;SDS011;5842;52.426;4.886;2022-11-10T14:29:24;14.40;;;3.50;;
11572;SDS011;5842;52.426;4.886;2022-11-10T14:32:01;8.53;;;3.60;;
11572;SDS011;5842;52.426;4.886;2022-11-10T14:34:30;12.67;;;3.47;;
11572;SDS011;5842;52.426;4.886;2022-11-10T14:37:02;12.00;;;3.67;;
11572;SDS011;5842;52.426;4.886;2022-11-10T14:39:30;11.33;;;3.57;;
11572;SDS011;5842;52.426;4.886;2022-11-10T14:42:00;11.70;;;3.50;;
11572;SDS011;5842;52.426;4.886;2022-11-10T14:44:30;14.53;;;3.30;;
11572;SDS011;5842;52.426;4.886;2022-11-10T14:50:01;15.47;;;5.73;;
11572;SDS011;5842;52.426;4.886;2022-11-10T14:52:37;13.67;;;3.60;;
11572;SDS011;5842;52.426;4.886;2022-11-10T14:55:06;14.00;;;3.23;;
11572;SDS011;5842;52.426;4.886;2022-11-10T14:57:36;10.43;;;2.97;;
11572;SDS011;5842;52.426;4.886;2022-11-10T15:00:05;12.57;;;3.40;;
11572;SDS011;5842;52.426;4.886;2022-11-10T15:02:33;13.93;;;3.73;;
11572;SDS011;5842;52.426;4.886;2022-11-10T15:05:01;13.03;;;3.93;;
11572;SDS011;5842;52.426;4.886;2022-11-10T15:07:30;13.27;;;3.40;;
11572;SDS011;5842;52.426;4.886;2022-11-10T15:10:05;12.47;;;3.10;;
11572;SDS011;5842;52.426;4.886;2022-11-10T15:12:43;9.17;;;2.77;;
11572;SDS011;5842;52.426;4.886;2022-11-10T15:15:22;10.50;;;3.13;;
11572;SDS011;5842;52.426;4.886;2022-11-10T15:17:50;16.17;;;3.17;;
11572;SDS011;5842;52.426;4.886;2022-11-10T15:20:34;14.13;;;3.20;;
11572;SDS011;5842;52.426;4.886;2022-11-10T15:23:04;9.27;;;2.73;;
11572;SDS011;5842;52.426;4.886;2022-11-10T15:25:41;10.77;;;3.30;;
11572;SDS011;5842;52.426;4.886;2022-11-10T15:28:15;9.70;;;3.07;;
11572;SDS011;5842;52.426;4.886;2022-11-10T15:30:50;8.20;;;2.77;;
11572;SDS011;5842;52.426;4.886;2022-11-10T15:33:20;13.27;;;2.93;;
11572;SDS011;5842;52.426;4.886;2022-11-10T15:35:52;9.90;;;2.90;;
11572;SDS011;5842;52.426;4.886;2022-11-10T15:38:30;11.70;;;2.87;;
11572;SDS011;5842;52.426;4.886;2022-11-10T15:41:14;10.63;;;3.50;;
11572;SDS011;5842;52.426;4.886;2022-11-10T15:43:48;11.80;;;3.63;;
11572;SDS011;5842;52.426;4.886;2022-11-10T15:46:16;11.13;;;3.30;;
11572;SDS011;5842;52.426;4.886;2022-11-10T15:48:45;12.87;;;3.00;;
11572;SDS011;5842;52.426;4.886;2022-11-10T15:51:14;13.07;;;3.50;;
11572;SDS011;5842;52.426;4.886;2022-11-10T15:53:43;12.07;;;3.50;;
11572;SDS011;5842;52.426;4.886;2022-11-10T15:56:14;9.83;;;3.10;;
11572;SDS011;5842;52.426;4.886;2022-11-10T15:58:43;11.20;;;2.83;;
11572;SDS011;5842;52.426;4.886;2022-11-10T16:01:12;9.77;;;3.03;;